sensor_id;sensor_type;location;lat;lon;timestamp;temperature;humidity
52285;DHT22;38238;53.304;6.606;2023-02-21T00:00:38;9.70;99.90
52285;DHT22;38238;53.304;6.606;2023-02-21T00:03:22;9.70;99.90
52285;DHT22;38238;53.304;6.606;2023-02-21T00:06:09;9.60;99.90
52285;DHT22;38238;53.304;6.606;2023-02-21T00:08:53;9.90;99.90
52285;DHT22;38238;53.304;6.606;2023-02-21T00:11:43;9.60;99.90
52285;DHT22;38238;53.304;6.606;2023-02-21T00:14:28;9.60;99.90
52285;DHT22;38238;53.304;6.606;2023-02-21T00:17:12;9.60;99.90
52285;DHT22;38238;53.304;6.606;2023-02-21T00:19:56;9.70;99.90
52285;DHT22;38238;53.304;6.606;2023-02-21T00:22:40;9.70;99.90
52285;DHT22;38238;53.304;6.606;2023-02-21T00:25:24;9.60;99.90
52285;DHT22;38238;53.304;6.606;2023-02-21T00:28:09;9.60;99.90
52285;DHT22;38238;53.304;6.606;2023-02-21T00:30:53;9.90;99.90
52285;DHT22;38238;53.304;6.606;2023-02-21T00:33:37;9.60;99.90
52285;DHT22;38238;53.304;6.606;2023-02-21T00:36:21;9.60;99.90
52285;DHT22;38238;53.304;6.606;2023-02-21T00:39:05;9.60;99.90
52285;DHT22;38238;53.304;6.606;2023-02-21T00:41:49;9.60;99.90
52285;DHT22;38238;53.304;6.606;2023-02-21T00:44:33;9.60;99.90
52285;DHT22;38238;53.304;6.606;2023-02-21T00:47:18;9.60;99.90
52285;DHT22;38238;53.304;6.606;2023-02-21T00:50:02;9.60;99.90
52285;DHT22;38238;53.304;6.606;2023-02-21T00:52:46;9.50;99.90
52285;DHT22;38238;53.304;6.606;2023-02-21T00:55:30;9.50;99.90
52285;DHT22;38238;53.304;6.606;2023-02-21T00:58:14;9.50;99.90
52285;DHT22;38238;53.304;6.606;2023-02-21T01:00:58;9.50;99.90
52285;DHT22;38238;53.304;6.606;2023-02-21T01:03:42;9.50;99.90
52285;DHT22;38238;53.304;6.606;2023-02-21T01:06:26;9.50;99.90
52285;DHT22;38238;53.304;6.606;2023-02-21T01:09:11;9.50;99.90
52285;DHT22;38238;53.304;6.606;2023-02-21T01:11:55;9.50;99.90
52285;DHT22;38238;53.304;6.606;2023-02-21T01:14:39;9.50;99.90
52285;DHT22;38238;53.304;6.606;2023-02-21T01:17:23;9.50;99.90
52285;DHT22;38238;53.304;6.606;2023-02-21T01:20:07;9.50;99.90
52285;DHT22;38238;53.304;6.606;2023-02-21T01:22:51;9.50;99.90
52285;DHT22;38238;53.304;6.606;2023-02-21T01:25:36;9.50;99.90
52285;DHT22;38238;53.304;6.606;2023-02-21T01:28:20;9.50;99.90
52285;DHT22;38238;53.304;6.606;2023-02-21T01:31:04;9.50;99.90
52285;DHT22;38238;53.304;6.606;2023-02-21T01:33:48;9.50;99.90
52285;DHT22;38238;53.304;6.606;2023-02-21T01:36:32;9.80;99.90
52285;DHT22;38238;53.304;6.606;2023-02-21T01:39:16;9.50;99.90
52285;DHT22;38238;53.304;6.606;2023-02-21T01:42:01;9.50;99.90
52285;DHT22;38238;53.304;6.606;2023-02-21T01:44:47;9.50;99.90
52285;DHT22;38238;53.304;6.606;2023-02-21T01:47:32;9.50;99.90
52285;DHT22;38238;53.304;6.606;2023-02-21T01:53:10;9.40;99.90
52285;DHT22;38238;53.304;6.606;2023-02-21T01:55:56;9.50;99.90
52285;DHT22;38238;53.304;6.606;2023-02-21T01:58:42;9.40;99.90
52285;DHT22;38238;53.304;6.606;2023-02-21T02:01:36;9.40;99.90
52285;DHT22;38238;53.304;6.606;2023-02-21T02:04:21;9.40;99.90
52285;DHT22;38238;53.304;6.606;2023-02-21T02:07:05;9.40;99.90
52285;DHT22;38238;53.304;6.606;2023-02-21T02:09:49;9.40;99.90
52285;DHT22;38238;53.304;6.606;2023-02-21T02:12:52;9.40;99.90
52285;DHT22;38238;53.304;6.606;2023-02-21T02:15:42;9.40;99.90
52285;DHT22;38238;53.304;6.606;2023-02-21T02:18:28;9.40;99.90
52285;DHT22;38238;53.304;6.606;2023-02-21T02:21:10;9.40;99.90
52285;DHT22;38238;53.304;6.606;2023-02-21T02:35:07;9.30;99.90
52285;DHT22;38238;53.304;6.606;2023-02-21T02:40:43;9.30;99.90
52285;DHT22;38238;53.304;6.606;2023-02-21T02:43:15;9.30;99.90
52285;DHT22;38238;53.304;6.606;2023-02-21T02:48:30;9.30;99.90
52285;DHT22;38238;53.304;6.606;2023-02-21T02:50:57;9.30;99.90
52285;DHT22;38238;53.304;6.606;2023-02-21T02:53:26;9.30;99.90
52285;DHT22;38238;53.304;6.606;2023-02-21T02:55:59;9.30;99.90
52285;DHT22;38238;53.304;6.606;2023-02-21T02:58:28;9.30;99.90
52285;DHT22;38238;53.304;6.606;2023-02-21T03:09:28;9.30;99.90
52285;DHT22;38238;53.304;6.606;2023-02-21T03:12:01;9.30;99.90
52285;DHT22;38238;53.304;6.606;2023-02-21T03:14:37;9.30;99.90
52285;DHT22;38238;53.304;6.606;2023-02-21T03:17:08;9.30;99.90
52285;DHT22;38238;53.304;6.606;2023-02-21T03:19:38;9.30;99.90
52285;DHT22;38238;53.304;6.606;2023-02-21T03:22:35;9.30;99.90
52285;DHT22;38238;53.304;6.606;2023-02-21T03:25:02;9.30;99.90
52285;DHT22;38238;53.304;6.606;2023-02-21T03:27:30;9.30;99.90
52285;DHT22;38238;53.304;6.606;2023-02-21T03:30:00;9.30;99.90
52285;DHT22;38238;53.304;6.606;2023-02-21T03:32:30;9.30;99.90
52285;DHT22;38238;53.304;6.606;2023-02-21T03:34:57;9.30;99.90
52285;DHT22;38238;53.304;6.606;2023-02-21T03:37:47;9.60;99.90
52285;DHT22;38238;53.304;6.606;2023-02-21T03:40:22;9.30;99.90
52285;DHT22;38238;53.304;6.606;2023-02-21T03:42:50;9.30;99.90
52285;DHT22;38238;53.304;6.606;2023-02-21T03:45:16;9.30;99.90
52285;DHT22;38238;53.304;6.606;2023-02-21T03:47:42;9.30;99.90
52285;DHT22;38238;53.304;6.606;2023-02-21T03:50:07;9.30;99.90
52285;DHT22;38238;53.304;6.606;2023-02-21T03:52:33;9.30;99.90
52285;DHT22;38238;53.304;6.606;2023-02-21T03:54:59;9.30;99.90
52285;DHT22;38238;53.304;6.606;2023-02-21T03:57:25;9.30;99.90
52285;DHT22;38238;53.304;6.606;2023-02-21T03:59:51;9.30;99.90
52285;DHT22;38238;53.304;6.606;2023-02-21T04:02:17;9.20;99.90
52285;DHT22;38238;53.304;6.606;2023-02-21T04:04:43;9.30;99.90
52285;DHT22;38238;53.304;6.606;2023-02-21T04:07:10;9.20;99.90
52285;DHT22;38238;53.304;6.606;2023-02-21T04:09:36;9.20;99.90
52285;DHT22;38238;53.304;6.606;2023-02-21T04:12:03;9.20;99.90
52285;DHT22;38238;53.304;6.606;2023-02-21T04:14:29;10.60;99.90
52285;DHT22;38238;53.304;6.606;2023-02-21T04:16:55;9.20;99.90
52285;DHT22;38238;53.304;6.606;2023-02-21T04:19:21;9.20;99.90
52285;DHT22;38238;53.304;6.606;2023-02-21T04:21:47;9.20;99.90
52285;DHT22;38238;53.304;6.606;2023-02-21T04:24:12;9.20;99.90
52285;DHT22;38238;53.304;6.606;2023-02-21T04:26:38;9.20;99.90
52285;DHT22;38238;53.304;6.606;2023-02-21T04:29:04;9.20;99.90
52285;DHT22;38238;53.304;6.606;2023-02-21T04:31:30;9.10;99.90
52285;DHT22;38238;53.304;6.606;2023-02-21T04:33:57;9.10;99.90
52285;DHT22;38238;53.304;6.606;2023-02-21T04:36:23;9.10;99.90
52285;DHT22;38238;53.304;6.606;2023-02-21T04:38:49;9.10;99.90
52285;DHT22;38238;53.304;6.606;2023-02-21T04:41:15;9.40;99.90
52285;DHT22;38238;53.304;6.606;2023-02-21T04:43:42;9.10;99.90
52285;DHT22;38238;53.304;6.606;2023-02-21T04:46:09;9.10;99.90
52285;DHT22;38238;53.304;6.606;2023-02-21T04:48:35;9.10;99.90
52285;DHT22;38238;53.304;6.606;2023-02-21T04:51:00;9.10;99.90
52285;DHT22;38238;53.304;6.606;2023-02-21T04:53:26;9.10;99.90
52285;DHT22;38238;53.304;6.606;2023-02-21T04:55:52;9.10;99.90
52285;DHT22;38238;53.304;6.606;2023-02-21T04:58:17;9.10;99.90
52285;DHT22;38238;53.304;6.606;2023-02-21T05:00:43;9.10;99.90
52285;DHT22;38238;53.304;6.606;2023-02-21T05:03:09;9.00;99.90
52285;DHT22;38238;53.304;6.606;2023-02-21T05:05:34;9.00;99.90
52285;DHT22;38238;53.304;6.606;2023-02-21T05:08:00;9.00;99.90
52285;DHT22;38238;53.304;6.606;2023-02-21T05:10:26;9.00;99.90
52285;DHT22;38238;53.304;6.606;2023-02-21T05:12:51;9.00;99.90
52285;DHT22;38238;53.304;6.606;2023-02-21T05:15:17;9.00;99.90
52285;DHT22;38238;53.304;6.606;2023-02-21T05:17:43;9.00;99.90
52285;DHT22;38238;53.304;6.606;2023-02-21T05:20:10;9.00;99.90
52285;DHT22;38238;53.304;6.606;2023-02-21T05:22:40;9.00;99.90
52285;DHT22;38238;53.304;6.606;2023-02-21T05:25:13;9.00;99.90
52285;DHT22;38238;53.304;6.606;2023-02-21T05:27:39;9.00;99.90
52285;DHT22;38238;53.304;6.606;2023-02-21T05:30:05;9.00;99.90
52285;DHT22;38238;53.304;6.606;2023-02-21T05:32:31;9.00;99.90
52285;DHT22;38238;53.304;6.606;2023-02-21T05:34:57;9.00;99.90
52285;DHT22;38238;53.304;6.606;2023-02-21T05:37:22;9.00;99.90
52285;DHT22;38238;53.304;6.606;2023-02-21T05:39:48;10.30;99.90
52285;DHT22;38238;53.304;6.606;2023-02-21T05:42:14;9.00;99.90
52285;DHT22;38238;53.304;6.606;2023-02-21T05:44:39;8.90;99.90
52285;DHT22;38238;53.304;6.606;2023-02-21T05:47:07;9.00;99.90
52285;DHT22;38238;53.304;6.606;2023-02-21T05:49:33;8.90;99.90
52285;DHT22;38238;53.304;6.606;2023-02-21T05:51:59;9.10;99.90
52285;DHT22;38238;53.304;6.606;2023-02-21T05:54:25;9.00;99.90
52285;DHT22;38238;53.304;6.606;2023-02-21T05:56:51;9.00;99.90
52285;DHT22;38238;53.304;6.606;2023-02-21T05:59:18;8.90;99.90
52285;DHT22;38238;53.304;6.606;2023-02-21T06:01:45;8.90;99.90
52285;DHT22;38238;53.304;6.606;2023-02-21T06:04:11;8.90;99.90
52285;DHT22;38238;53.304;6.606;2023-02-21T06:06:37;8.90;99.90
52285;DHT22;38238;53.304;6.606;2023-02-21T06:09:04;8.90;99.90
52285;DHT22;38238;53.304;6.606;2023-02-21T06:11:32;8.90;99.90
52285;DHT22;38238;53.304;6.606;2023-02-21T06:14:00;8.90;99.90
52285;DHT22;38238;53.304;6.606;2023-02-21T06:16:32;8.90;99.90
52285;DHT22;38238;53.304;6.606;2023-02-21T06:18:59;9.40;99.90
52285;DHT22;38238;53.304;6.606;2023-02-21T06:21:25;8.90;99.90
52285;DHT22;38238;53.304;6.606;2023-02-21T06:23:50;8.90;99.90
52285;DHT22;38238;53.304;6.606;2023-02-21T06:26:17;8.90;99.90
52285;DHT22;38238;53.304;6.606;2023-02-21T06:28:43;9.00;99.90
52285;DHT22;38238;53.304;6.606;2023-02-21T06:31:09;9.20;99.90
52285;DHT22;38238;53.304;6.606;2023-02-21T06:33:35;8.90;99.90
52285;DHT22;38238;53.304;6.606;2023-02-21T06:36:05;9.10;99.90
52285;DHT22;38238;53.304;6.606;2023-02-21T06:38:31;8.90;99.90
52285;DHT22;38238;53.304;6.606;2023-02-21T06:40:57;8.90;99.90
52285;DHT22;38238;53.304;6.606;2023-02-21T06:43:22;8.90;99.90
52285;DHT22;38238;53.304;6.606;2023-02-21T06:45:48;8.90;99.90
52285;DHT22;38238;53.304;6.606;2023-02-21T06:48:15;8.90;99.90
52285;DHT22;38238;53.304;6.606;2023-02-21T06:50:41;8.90;99.90
52285;DHT22;38238;53.304;6.606;2023-02-21T06:53:07;8.90;99.90
52285;DHT22;38238;53.304;6.606;2023-02-21T06:55:33;8.90;99.90
52285;DHT22;38238;53.304;6.606;2023-02-21T06:57:58;8.90;99.90
52285;DHT22;38238;53.304;6.606;2023-02-21T07:00:24;8.90;99.90
52285;DHT22;38238;53.304;6.606;2023-02-21T07:02:51;8.90;99.90
52285;DHT22;38238;53.304;6.606;2023-02-21T07:05:17;8.90;99.90
52285;DHT22;38238;53.304;6.606;2023-02-21T07:07:44;8.80;99.90
52285;DHT22;38238;53.304;6.606;2023-02-21T07:10:10;8.80;99.90
52285;DHT22;38238;53.304;6.606;2023-02-21T07:12:36;8.80;99.90
52285;DHT22;38238;53.304;6.606;2023-02-21T07:15:02;8.80;99.90
52285;DHT22;38238;53.304;6.606;2023-02-21T07:17:28;8.90;99.90
52285;DHT22;38238;53.304;6.606;2023-02-21T07:19:54;8.80;99.90
52285;DHT22;38238;53.304;6.606;2023-02-21T07:22:19;8.90;99.90
52285;DHT22;38238;53.304;6.606;2023-02-21T07:24:53;8.80;99.90
52285;DHT22;38238;53.304;6.606;2023-02-21T07:27:19;8.90;99.90
52285;DHT22;38238;53.304;6.606;2023-02-21T07:29:46;8.80;99.90
52285;DHT22;38238;53.304;6.606;2023-02-21T07:32:13;10.20;99.90
52285;DHT22;38238;53.304;6.606;2023-02-21T07:34:39;8.90;99.90
52285;DHT22;38238;53.304;6.606;2023-02-21T07:37:05;8.90;99.90
52285;DHT22;38238;53.304;6.606;2023-02-21T07:39:31;8.90;99.90
52285;DHT22;38238;53.304;6.606;2023-02-21T07:41:56;8.90;99.90
52285;DHT22;38238;53.304;6.606;2023-02-21T07:44:22;8.90;99.90
52285;DHT22;38238;53.304;6.606;2023-02-21T07:46:48;8.90;99.90
52285;DHT22;38238;53.304;6.606;2023-02-21T07:49:14;8.90;99.90
52285;DHT22;38238;53.304;6.606;2023-02-21T07:51:39;8.90;99.90
52285;DHT22;38238;53.304;6.606;2023-02-21T07:54:05;8.90;99.90
52285;DHT22;38238;53.304;6.606;2023-02-21T07:56:31;8.90;99.90
52285;DHT22;38238;53.304;6.606;2023-02-21T07:58:56;9.00;99.90
52285;DHT22;38238;53.304;6.606;2023-02-21T08:01:24;8.90;99.90
52285;DHT22;38238;53.304;6.606;2023-02-21T08:03:49;9.30;99.90
52285;DHT22;38238;53.304;6.606;2023-02-21T08:06:15;9.00;99.90
52285;DHT22;38238;53.304;6.606;2023-02-21T08:08:41;9.00;99.90
52285;DHT22;38238;53.304;6.606;2023-02-21T08:11:06;9.00;99.90
52285;DHT22;38238;53.304;6.606;2023-02-21T08:13:32;9.00;99.90
52285;DHT22;38238;53.304;6.606;2023-02-21T08:15:58;9.10;99.90
52285;DHT22;38238;53.304;6.606;2023-02-21T08:18:24;9.10;99.90
52285;DHT22;38238;53.304;6.606;2023-02-21T08:20:50;9.20;99.90
52285;DHT22;38238;53.304;6.606;2023-02-21T08:23:17;9.10;99.90
52285;DHT22;38238;53.304;6.606;2023-02-21T08:25:43;9.10;99.90
52285;DHT22;38238;53.304;6.606;2023-02-21T08:28:09;9.20;99.90
52285;DHT22;38238;53.304;6.606;2023-02-21T08:30:35;9.20;99.90
52285;DHT22;38238;53.304;6.606;2023-02-21T08:33:01;9.20;99.90
52285;DHT22;38238;53.304;6.606;2023-02-21T08:35:27;9.30;99.90
52285;DHT22;38238;53.304;6.606;2023-02-21T08:37:53;9.30;99.90
52285;DHT22;38238;53.304;6.606;2023-02-21T08:40:27;9.30;99.90
52285;DHT22;38238;53.304;6.606;2023-02-21T08:42:53;9.30;99.90
52285;DHT22;38238;53.304;6.606;2023-02-21T08:45:21;9.40;99.90
52285;DHT22;38238;53.304;6.606;2023-02-21T08:47:47;9.40;99.90
52285;DHT22;38238;53.304;6.606;2023-02-21T08:50:13;9.40;99.90
52285;DHT22;38238;53.304;6.606;2023-02-21T08:52:39;9.50;99.90
52285;DHT22;38238;53.304;6.606;2023-02-21T08:55:06;9.50;99.90
52285;DHT22;38238;53.304;6.606;2023-02-21T08:57:32;9.60;99.90
52285;DHT22;38238;53.304;6.606;2023-02-21T08:59:59;9.60;99.90
52285;DHT22;38238;53.304;6.606;2023-02-21T09:02:25;9.60;99.90
52285;DHT22;38238;53.304;6.606;2023-02-21T09:04:53;9.70;99.90
52285;DHT22;38238;53.304;6.606;2023-02-21T09:07:22;9.80;99.90
52285;DHT22;38238;53.304;6.606;2023-02-21T09:09:48;9.80;99.90
52285;DHT22;38238;53.304;6.606;2023-02-21T09:12:14;9.80;99.90
52285;DHT22;38238;53.304;6.606;2023-02-21T09:14:41;9.90;99.90
52285;DHT22;38238;53.304;6.606;2023-02-21T09:17:09;10.20;99.90
52285;DHT22;38238;53.304;6.606;2023-02-21T09:19:36;10.00;99.90
52285;DHT22;38238;53.304;6.606;2023-02-21T09:22:02;10.20;99.90
52285;DHT22;38238;53.304;6.606;2023-02-21T09:24:29;10.20;99.90
52285;DHT22;38238;53.304;6.606;2023-02-21T09:26:57;10.20;99.90
52285;DHT22;38238;53.304;6.606;2023-02-21T09:29:30;10.30;99.90
52285;DHT22;38238;53.304;6.606;2023-02-21T09:31:56;10.30;99.90
52285;DHT22;38238;53.304;6.606;2023-02-21T09:34:22;10.30;99.90
52285;DHT22;38238;53.304;6.606;2023-02-21T09:36:49;10.30;99.90
52285;DHT22;38238;53.304;6.606;2023-02-21T09:39:20;10.40;99.90
52285;DHT22;38238;53.304;6.606;2023-02-21T09:41:46;10.40;99.90
52285;DHT22;38238;53.304;6.606;2023-02-21T09:44:21;10.40;99.90
52285;DHT22;38238;53.304;6.606;2023-02-21T09:46:59;10.40;99.90
52285;DHT22;38238;53.304;6.606;2023-02-21T09:49:32;10.40;99.90
52285;DHT22;38238;53.304;6.606;2023-02-21T09:52:00;10.40;99.90
52285;DHT22;38238;53.304;6.606;2023-02-21T09:54:35;10.40;99.90
52285;DHT22;38238;53.304;6.606;2023-02-21T09:57:06;10.40;99.90
52285;DHT22;38238;53.304;6.606;2023-02-21T09:59:35;10.40;99.90
52285;DHT22;38238;53.304;6.606;2023-02-21T10:07:58;10.40;99.90
52285;DHT22;38238;53.304;6.606;2023-02-21T10:10:46;10.40;99.90
52285;DHT22;38238;53.304;6.606;2023-02-21T10:13:45;10.30;99.90
52285;DHT22;38238;53.304;6.606;2023-02-21T10:16:55;10.30;99.90
52285;DHT22;38238;53.304;6.606;2023-02-21T10:19:22;10.30;99.90
52285;DHT22;38238;53.304;6.606;2023-02-21T10:21:52;10.30;99.90
52285;DHT22;38238;53.304;6.606;2023-02-21T10:24:21;10.20;99.90
52285;DHT22;38238;53.304;6.606;2023-02-21T10:27:01;10.30;99.90
52285;DHT22;38238;53.304;6.606;2023-02-21T10:29:56;10.30;99.90
52285;DHT22;38238;53.304;6.606;2023-02-21T10:32:24;10.30;99.90
52285;DHT22;38238;53.304;6.606;2023-02-21T10:34:51;10.30;99.90
52285;DHT22;38238;53.304;6.606;2023-02-21T10:37:47;10.30;99.90
52285;DHT22;38238;53.304;6.606;2023-02-21T10:42:47;10.30;99.90
52285;DHT22;38238;53.304;6.606;2023-02-21T10:45:17;10.30;99.90
52285;DHT22;38238;53.304;6.606;2023-02-21T10:48:20;10.30;99.90
52285;DHT22;38238;53.304;6.606;2023-02-21T10:53:35;10.30;99.90
52285;DHT22;38238;53.304;6.606;2023-02-21T10:58:35;10.30;99.90
52285;DHT22;38238;53.304;6.606;2023-02-21T11:04:06;10.40;99.90
52285;DHT22;38238;53.304;6.606;2023-02-21T11:09:01;10.40;99.90
52285;DHT22;38238;53.304;6.606;2023-02-21T11:16:42;10.40;99.90
52285;DHT22;38238;53.304;6.606;2023-02-21T11:19:12;10.40;99.90
52285;DHT22;38238;53.304;6.606;2023-02-21T11:21:40;10.40;99.90
52285;DHT22;38238;53.304;6.606;2023-02-21T11:24:07;10.40;99.90
52285;DHT22;38238;53.304;6.606;2023-02-21T11:26:47;10.40;99.90
52285;DHT22;38238;53.304;6.606;2023-02-21T11:29:18;10.40;99.90
52285;DHT22;38238;53.304;6.606;2023-02-21T11:31:45;10.40;99.90
52285;DHT22;38238;53.304;6.606;2023-02-21T11:34:13;10.40;99.90
52285;DHT22;38238;53.304;6.606;2023-02-21T11:36:40;10.40;99.90
52285;DHT22;38238;53.304;6.606;2023-02-21T11:42:51;10.40;99.90
52285;DHT22;38238;53.304;6.606;2023-02-21T11:45:16;10.40;99.90
52285;DHT22;38238;53.304;6.606;2023-02-21T11:47:58;10.40;99.90
52285;DHT22;38238;53.304;6.606;2023-02-21T11:50:29;10.40;99.90
52285;DHT22;38238;53.304;6.606;2023-02-21T11:55:37;10.40;99.90
52285;DHT22;38238;53.304;6.606;2023-02-21T11:58:19;10.40;99.90
52285;DHT22;38238;53.304;6.606;2023-02-21T12:01:05;10.40;99.90
52285;DHT22;38238;53.304;6.606;2023-02-21T12:09:16;10.40;99.90
52285;DHT22;38238;53.304;6.606;2023-02-21T12:22:34;10.50;99.90
52285;DHT22;38238;53.304;6.606;2023-02-21T12:25:25;10.50;99.90
52285;DHT22;38238;53.304;6.606;2023-02-21T12:36:44;10.50;99.90
52285;DHT22;38238;53.304;6.606;2023-02-21T12:42:27;10.60;99.90
52285;DHT22;38238;53.304;6.606;2023-02-21T12:47:43;11.10;99.90
52285;DHT22;38238;53.304;6.606;2023-02-21T12:50:17;10.70;99.90
52285;DHT22;38238;53.304;6.606;2023-02-21T12:53:02;10.60;99.90
52285;DHT22;38238;53.304;6.606;2023-02-21T12:55:37;10.70;99.90
52285;DHT22;38238;53.304;6.606;2023-02-21T13:06:25;10.60;99.90
52285;DHT22;38238;53.304;6.606;2023-02-21T13:08:59;10.60;99.90
52285;DHT22;38238;53.304;6.606;2023-02-21T13:11:54;10.60;99.90
52285;DHT22;38238;53.304;6.606;2023-02-21T13:14:37;10.60;99.90
52285;DHT22;38238;53.304;6.606;2023-02-21T13:17:04;10.60;99.90
52285;DHT22;38238;53.304;6.606;2023-02-21T13:19:46;10.60;99.90
52285;DHT22;38238;53.304;6.606;2023-02-21T13:22:32;10.60;99.90
52285;DHT22;38238;53.304;6.606;2023-02-21T13:28:04;10.60;99.90
52285;DHT22;38238;53.304;6.606;2023-02-21T13:32:58;10.60;99.90
52285;DHT22;38238;53.304;6.606;2023-02-21T13:35:31;10.60;99.90
52285;DHT22;38238;53.304;6.606;2023-02-21T13:37:58;10.60;99.90
52285;DHT22;38238;53.304;6.606;2023-02-21T13:40:41;10.60;99.90
52285;DHT22;38238;53.304;6.606;2023-02-21T13:43:15;10.60;99.90
52285;DHT22;38238;53.304;6.606;2023-02-21T13:45:43;10.60;99.90
52285;DHT22;38238;53.304;6.606;2023-02-21T13:48:21;10.70;99.90
52285;DHT22;38238;53.304;6.606;2023-02-21T13:50:49;10.60;99.90
52285;DHT22;38238;53.304;6.606;2023-02-21T13:53:21;10.70;99.90
52285;DHT22;38238;53.304;6.606;2023-02-21T13:58:43;10.60;99.90
52285;DHT22;38238;53.304;6.606;2023-02-21T14:03:40;10.60;99.90
52285;DHT22;38238;53.304;6.606;2023-02-21T14:08:42;10.70;99.90
52285;DHT22;38238;53.304;6.606;2023-02-21T14:11:12;10.70;99.90
52285;DHT22;38238;53.304;6.606;2023-02-21T14:21:12;10.70;99.90
52285;DHT22;38238;53.304;6.606;2023-02-21T14:23:58;10.70;99.90
52285;DHT22;38238;53.304;6.606;2023-02-21T14:31:54;10.80;99.90
52285;DHT22;38238;53.304;6.606;2023-02-21T14:36:57;10.80;99.90
52285;DHT22;38238;53.304;6.606;2023-02-21T14:39:30;10.80;99.90
52285;DHT22;38238;53.304;6.606;2023-02-21T14:42:06;10.80;99.90
52285;DHT22;38238;53.304;6.606;2023-02-21T14:44:47;10.90;99.90
52285;DHT22;38238;53.304;6.606;2023-02-21T15:06:20;10.70;99.90
52285;DHT22;38238;53.304;6.606;2023-02-21T15:08:50;10.70;99.90
52285;DHT22;38238;53.304;6.606;2023-02-21T15:11:26;10.60;99.90
52285;DHT22;38238;53.304;6.606;2023-02-21T15:19:31;10.50;99.90
52285;DHT22;38238;53.304;6.606;2023-02-21T15:22:21;10.50;99.90
52285;DHT22;38238;53.304;6.606;2023-02-21T15:27:51;10.40;99.90
52285;DHT22;38238;53.304;6.606;2023-02-21T15:30:24;10.40;99.90
52285;DHT22;38238;53.304;6.606;2023-02-21T15:33:00;10.30;99.90
52285;DHT22;38238;53.304;6.606;2023-02-21T15:35:40;10.30;99.90
52285;DHT22;38238;53.304;6.606;2023-02-21T15:38:21;10.30;99.90
52285;DHT22;38238;53.304;6.606;2023-02-21T15:40:49;10.30;99.90
52285;DHT22;38238;53.304;6.606;2023-02-21T15:43:27;10.20;99.90
52285;DHT22;38238;53.304;6.606;2023-02-21T15:45:56;10.20;99.90
52285;DHT22;38238;53.304;6.606;2023-02-21T15:48:23;10.20;99.90
52285;DHT22;38238;53.304;6.606;2023-02-21T15:50:49;10.10;99.90
52285;DHT22;38238;53.304;6.606;2023-02-21T15:55:42;10.00;99.90
52285;DHT22;38238;53.304;6.606;2023-02-21T16:01:03;10.00;99.90
52285;DHT22;38238;53.304;6.606;2023-02-21T16:03:41;10.00;99.90
52285;DHT22;38238;53.304;6.606;2023-02-21T16:08:33;9.90;99.90
52285;DHT22;38238;53.304;6.606;2023-02-21T16:11:02;9.90;99.90
52285;DHT22;38238;53.304;6.606;2023-02-21T16:13:38;9.90;99.90
52285;DHT22;38238;53.304;6.606;2023-02-21T16:16:06;9.80;99.90
52285;DHT22;38238;53.304;6.606;2023-02-21T16:18:32;9.80;99.90
52285;DHT22;38238;53.304;6.606;2023-02-21T16:21:05;9.80;99.90
52285;DHT22;38238;53.304;6.606;2023-02-21T16:23:38;9.80;99.90
52285;DHT22;38238;53.304;6.606;2023-02-21T16:28:32;9.70;99.90
52285;DHT22;38238;53.304;6.606;2023-02-21T16:30:59;9.70;99.90
52285;DHT22;38238;53.304;6.606;2023-02-21T16:33:27;9.70;99.90
52285;DHT22;38238;53.304;6.606;2023-02-21T16:35:53;9.70;99.90
52285;DHT22;38238;53.304;6.606;2023-02-21T16:38:22;9.70;99.90
52285;DHT22;38238;53.304;6.606;2023-02-21T16:40:49;9.60;99.90
52285;DHT22;38238;53.304;6.606;2023-02-21T16:43:19;9.90;99.90
52285;DHT22;38238;53.304;6.606;2023-02-21T16:45:46;9.60;99.90
52285;DHT22;38238;53.304;6.606;2023-02-21T16:48:28;9.50;99.90
52285;DHT22;38238;53.304;6.606;2023-02-21T16:51:01;9.50;99.90
52285;DHT22;38238;53.304;6.606;2023-02-21T16:53:28;9.50;99.90
52285;DHT22;38238;53.304;6.606;2023-02-21T16:55:54;9.50;99.90
52285;DHT22;38238;53.304;6.606;2023-02-21T16:58:30;9.50;99.90
52285;DHT22;38238;53.304;6.606;2023-02-21T17:01:04;9.40;99.90
52285;DHT22;38238;53.304;6.606;2023-02-21T17:03:30;9.50;99.90
52285;DHT22;38238;53.304;6.606;2023-02-21T17:05:58;9.40;99.90
52285;DHT22;38238;53.304;6.606;2023-02-21T17:08:24;9.40;99.90
52285;DHT22;38238;53.304;6.606;2023-02-21T17:10:51;9.40;99.90
52285;DHT22;38238;53.304;6.606;2023-02-21T17:13:17;9.40;99.90
52285;DHT22;38238;53.304;6.606;2023-02-21T17:15:43;9.40;99.90
52285;DHT22;38238;53.304;6.606;2023-02-21T17:18:08;9.40;99.90
52285;DHT22;38238;53.304;6.606;2023-02-21T17:20:34;9.30;99.90
52285;DHT22;38238;53.304;6.606;2023-02-21T17:23:00;9.30;99.90
52285;DHT22;38238;53.304;6.606;2023-02-21T17:25:27;9.30;99.90
52285;DHT22;38238;53.304;6.606;2023-02-21T17:27:53;9.30;99.90
52285;DHT22;38238;53.304;6.606;2023-02-21T17:30:21;9.30;99.90
52285;DHT22;38238;53.304;6.606;2023-02-21T17:32:48;9.30;99.90
52285;DHT22;38238;53.304;6.606;2023-02-21T17:35:15;9.30;99.90
52285;DHT22;38238;53.304;6.606;2023-02-21T17:37:42;9.30;99.90
52285;DHT22;38238;53.304;6.606;2023-02-21T17:40:09;9.30;99.90
52285;DHT22;38238;53.304;6.606;2023-02-21T17:42:35;9.30;99.90
52285;DHT22;38238;53.304;6.606;2023-02-21T17:45:01;9.30;99.90
52285;DHT22;38238;53.304;6.606;2023-02-21T17:47:28;9.30;99.90
52285;DHT22;38238;53.304;6.606;2023-02-21T17:49:53;9.20;99.90
52285;DHT22;38238;53.304;6.606;2023-02-21T17:52:20;9.20;99.90
52285;DHT22;38238;53.304;6.606;2023-02-21T17:54:46;9.20;99.90
52285;DHT22;38238;53.304;6.606;2023-02-21T17:57:12;9.20;99.90
52285;DHT22;38238;53.304;6.606;2023-02-21T17:59:38;9.20;99.90
52285;DHT22;38238;53.304;6.606;2023-02-21T18:02:04;9.20;99.90
52285;DHT22;38238;53.304;6.606;2023-02-21T18:04:30;9.20;99.90
52285;DHT22;38238;53.304;6.606;2023-02-21T18:06:57;9.20;99.90
52285;DHT22;38238;53.304;6.606;2023-02-21T18:09:22;9.20;99.90
52285;DHT22;38238;53.304;6.606;2023-02-21T18:11:53;9.20;99.90
52285;DHT22;38238;53.304;6.606;2023-02-21T18:14:20;9.20;99.90
52285;DHT22;38238;53.304;6.606;2023-02-21T18:16:47;9.10;99.90
52285;DHT22;38238;53.304;6.606;2023-02-21T18:19:13;9.50;99.90
52285;DHT22;38238;53.304;6.606;2023-02-21T18:21:39;9.20;99.90
52285;DHT22;38238;53.304;6.606;2023-02-21T18:24:10;9.10;99.90
52285;DHT22;38238;53.304;6.606;2023-02-21T18:26:36;9.10;99.90
52285;DHT22;38238;53.304;6.606;2023-02-21T18:29:04;9.10;99.90
52285;DHT22;38238;53.304;6.606;2023-02-21T18:31:30;9.10;99.90
52285;DHT22;38238;53.304;6.606;2023-02-21T18:33:55;9.10;99.90
52285;DHT22;38238;53.304;6.606;2023-02-21T18:36:21;9.10;99.90
52285;DHT22;38238;53.304;6.606;2023-02-21T18:38:47;9.10;99.90
52285;DHT22;38238;53.304;6.606;2023-02-21T18:41:16;9.00;99.90
52285;DHT22;38238;53.304;6.606;2023-02-21T18:43:42;9.00;99.90
52285;DHT22;38238;53.304;6.606;2023-02-21T18:46:12;9.00;99.90
52285;DHT22;38238;53.304;6.606;2023-02-21T18:48:41;9.00;99.90
52285;DHT22;38238;53.304;6.606;2023-02-21T18:51:08;9.00;99.90
52285;DHT22;38238;53.304;6.606;2023-02-21T18:53:35;9.00;99.90